createdAt,value
2023-01-17T00:00:49.479Z,3.98
2023-01-17T00:01:49.449Z,3.96
2023-01-17T00:02:49.501Z,3.96
2023-01-17T00:03:49.494Z,3.96
2023-01-17T00:04:49.435Z,3.94
2023-01-17T00:05:49.423Z,3.93
2023-01-17T00:06:49.428Z,3.94
2023-01-17T00:07:49.426Z,3.96
2023-01-17T00:08:49.389Z,3.94
2023-01-17T00:09:49.393Z,3.96
2023-01-17T00:10:49.364Z,3.96
2023-01-17T00:11:49.384Z,3.94
2023-01-17T00:12:49.373Z,3.94
2023-01-17T00:13:49.355Z,3.94
2023-01-17T00:14:49.329Z,3.94
2023-01-17T00:15:49.387Z,3.91
2023-01-17T00:16:49.296Z,3.90
2023-01-17T00:17:49.312Z,3.90
2023-01-17T00:18:49.290Z,3.93
2023-01-17T00:19:49.293Z,3.93
2023-01-17T00:20:49.270Z,3.91
2023-01-17T00:21:49.259Z,3.90
2023-01-17T00:22:49.241Z,3.88
2023-01-17T00:23:49.249Z,3.91
2023-01-17T00:24:49.223Z,3.88
2023-01-17T00:25:49.213Z,3.88
2023-01-17T00:26:49.200Z,3.86
2023-01-17T00:27:49.206Z,3.83
2023-01-17T00:28:49.177Z,3.80
2023-01-17T00:29:49.176Z,3.78
2023-01-17T00:30:49.179Z,3.78
2023-01-17T00:31:49.167Z,3.75
2023-01-17T00:32:49.129Z,3.76
2023-01-17T00:33:49.161Z,3.75
2023-01-17T00:34:49.109Z,3.75
2023-01-17T00:35:49.140Z,3.72
2023-01-17T00:36:49.096Z,3.70
2023-01-17T00:37:49.107Z,3.66
2023-01-17T00:38:49.091Z,3.69
2023-01-17T00:39:49.087Z,3.69
2023-01-17T00:40:49.051Z,3.69
2023-01-17T00:41:49.055Z,3.69
2023-01-17T00:42:49.026Z,3.69
2023-01-17T00:43:49.055Z,3.69
2023-01-17T00:44:49.026Z,3.68
2023-01-17T00:45:49.012Z,3.66
2023-01-17T00:46:49.062Z,3.61
2023-01-17T00:47:48.991Z,3.61
2023-01-17T00:48:49.115Z,3.61
2023-01-17T00:49:48.988Z,3.60
2023-01-17T00:50:48.952Z,3.60
2023-01-17T00:51:49.002Z,3.60
2023-01-17T00:52:48.926Z,3.58
2023-01-17T00:53:48.936Z,3.54
2023-01-17T00:54:48.937Z,3.54
2023-01-17T00:55:48.913Z,3.52
2023-01-17T00:56:48.891Z,3.52
2023-01-17T00:57:48.891Z,3.52
2023-01-17T00:58:48.871Z,3.52
2023-01-17T00:59:48.901Z,3.51
2023-01-17T01:00:49.010Z,3.50
2023-01-17T01:01:48.955Z,3.48
2023-01-17T01:02:48.873Z,3.48
2023-01-17T01:03:48.839Z,3.45
2023-01-17T01:04:48.801Z,3.45
2023-01-17T01:05:48.825Z,3.45
2023-01-17T01:06:48.787Z,3.42
2023-01-17T01:07:48.800Z,3.40
2023-01-17T01:08:48.767Z,3.40
2023-01-17T01:09:48.777Z,3.39
2023-01-17T01:10:48.759Z,3.39
2023-01-17T01:11:48.742Z,3.40
2023-01-17T01:12:48.719Z,3.42
2023-01-17T01:13:48.718Z,3.40
2023-01-17T01:14:48.696Z,3.39
2023-01-17T01:15:48.713Z,3.36
2023-01-17T01:16:48.682Z,3.35
2023-01-17T01:17:48.690Z,3.33
2023-01-17T01:18:48.653Z,3.31
2023-01-17T01:19:48.654Z,3.32
2023-01-17T01:20:48.632Z,3.32
2023-01-17T01:21:48.657Z,3.32
2023-01-17T01:22:48.616Z,3.32
2023-01-17T01:23:48.626Z,3.33
2023-01-17T01:24:48.596Z,3.32
2023-01-17T01:25:48.603Z,3.32
2023-01-17T01:26:48.567Z,3.35
2023-01-17T01:27:48.584Z,3.35
2023-01-17T01:28:48.543Z,3.39
2023-01-17T01:29:48.565Z,3.40
2023-01-17T01:30:48.528Z,3.42
2023-01-17T01:31:48.548Z,3.40
2023-01-17T01:32:48.501Z,3.40
2023-01-17T01:33:48.513Z,3.40
2023-01-17T01:34:48.480Z,3.39
2023-01-17T01:35:48.497Z,3.39
2023-01-17T01:36:48.465Z,3.33
2023-01-17T01:37:48.487Z,3.32
2023-01-17T01:38:48.449Z,3.28
2023-01-17T01:39:48.470Z,3.28
2023-01-17T01:40:48.419Z,3.26
2023-01-17T01:41:48.435Z,3.26
2023-01-17T01:42:48.398Z,3.28
2023-01-17T01:43:48.459Z,3.29
2023-01-17T01:44:48.373Z,3.28
2023-01-17T01:45:48.436Z,3.29
2023-01-17T01:46:48.353Z,3.31
2023-01-17T01:47:48.380Z,3.31
2023-01-17T01:48:48.337Z,3.36
2023-01-17T01:49:48.337Z,3.42
2023-01-17T01:50:48.308Z,3.40
2023-01-17T01:51:48.345Z,3.45
2023-01-17T01:52:48.290Z,3.45
2023-01-17T01:53:48.306Z,3.48
2023-01-17T01:54:48.268Z,3.47
2023-01-17T01:55:48.286Z,3.48
2023-01-17T01:56:48.250Z,3.47
2023-01-17T01:57:48.265Z,3.47
2023-01-17T01:58:48.252Z,3.48
2023-01-17T01:59:48.238Z,3.48
2023-01-17T02:00:48.308Z,3.50
2023-01-17T02:01:48.329Z,3.52
2023-01-17T02:02:48.187Z,3.52
2023-01-17T02:03:48.233Z,3.52
2023-01-17T02:04:48.164Z,3.52
2023-01-17T02:05:48.191Z,3.52
2023-01-17T02:06:48.143Z,3.52
2023-01-17T02:07:48.160Z,3.52
2023-01-17T02:08:48.122Z,3.51
2023-01-17T02:09:48.152Z,3.51
2023-01-17T02:10:48.100Z,3.54
2023-01-17T02:11:48.176Z,3.54
2023-01-17T02:12:48.095Z,3.55
2023-01-17T02:13:48.085Z,3.54
2023-01-17T02:14:48.106Z,3.51
2023-01-17T02:15:48.056Z,3.52
2023-01-17T02:16:48.108Z,3.51
2023-01-17T02:17:48.043Z,3.52
2023-01-17T02:18:48.034Z,3.52
2023-01-17T02:19:48.017Z,3.51
2023-01-17T02:20:48.010Z,3.51
2023-01-17T02:21:47.988Z,3.50
2023-01-17T02:22:48.004Z,3.50
2023-01-17T02:23:47.974Z,3.50
2023-01-17T02:24:47.980Z,3.47
2023-01-17T02:25:47.944Z,3.45
2023-01-17T02:26:47.953Z,3.45
2023-01-17T02:27:47.920Z,3.43
2023-01-17T02:28:47.927Z,3.43
2023-01-17T02:29:47.914Z,3.43
2023-01-17T02:30:47.906Z,3.45
2023-01-17T02:31:47.920Z,3.42
2023-01-17T02:32:47.898Z,3.43
2023-01-17T02:33:47.862Z,3.42
2023-01-17T02:34:47.877Z,3.42
2023-01-17T02:35:47.848Z,3.45
2023-01-17T02:36:47.844Z,3.43
2023-01-17T02:37:47.817Z,3.42
2023-01-17T02:38:47.821Z,3.43
2023-01-17T02:39:47.795Z,3.42
2023-01-17T02:40:47.815Z,3.42
2023-01-17T02:41:47.782Z,3.40
2023-01-17T02:42:47.796Z,3.39
2023-01-17T02:43:47.754Z,3.36
2023-01-17T02:44:47.761Z,3.35
2023-01-17T02:45:47.794Z,3.32
2023-01-17T02:46:47.751Z,3.29
2023-01-17T02:47:47.720Z,3.29
2023-01-17T02:48:47.720Z,3.29
2023-01-17T02:49:47.692Z,3.28
2023-01-17T02:50:47.699Z,3.26
2023-01-17T02:51:47.683Z,3.24
2023-01-17T02:52:47.675Z,3.26
2023-01-17T02:53:47.649Z,3.24
2023-01-17T02:54:47.669Z,3.23
2023-01-17T02:55:47.636Z,3.23
2023-01-17T02:56:47.658Z,3.21
2023-01-17T02:57:47.610Z,3.23
2023-01-17T02:58:47.632Z,3.20
2023-01-17T02:59:47.597Z,3.17
2023-01-17T03:00:47.732Z,3.15
2023-01-17T03:01:47.745Z,3.14
2023-01-17T03:02:47.676Z,3.13
2023-01-17T03:03:47.542Z,3.13
2023-01-17T03:04:47.549Z,3.10
2023-01-17T03:05:47.581Z,3.05
2023-01-17T03:06:47.549Z,3.05
2023-01-17T03:07:47.511Z,3.03
2023-01-17T03:08:47.520Z,3.02
2023-01-17T03:09:47.484Z,3.00
2023-01-17T03:10:47.484Z,3.00
2023-01-17T03:11:47.464Z,3.00
2023-01-17T03:12:47.512Z,3.00
2023-01-17T03:13:47.446Z,2.99
2023-01-17T03:14:47.449Z,2.99
2023-01-17T03:15:47.425Z,2.97
2023-01-17T03:16:47.464Z,2.97
2023-01-17T03:17:47.411Z,2.97
2023-01-17T03:18:47.405Z,2.96
2023-01-17T03:19:47.378Z,2.96
2023-01-17T03:20:47.381Z,2.93
2023-01-17T03:21:47.352Z,2.95
2023-01-17T03:22:47.384Z,2.96
2023-01-17T03:23:47.346Z,2.95
2023-01-17T03:24:47.338Z,2.96
2023-01-17T03:25:47.309Z,2.97
2023-01-17T03:26:47.315Z,2.96
2023-01-17T03:27:47.309Z,2.97
2023-01-17T03:28:47.294Z,2.97
2023-01-17T03:29:47.267Z,2.97
2023-01-17T03:30:47.319Z,2.95
2023-01-17T03:31:47.246Z,2.93
2023-01-17T03:32:47.263Z,2.92
2023-01-17T03:33:47.247Z,2.92
2023-01-17T03:34:47.250Z,2.92
2023-01-17T03:35:47.208Z,2.92
2023-01-17T03:36:47.223Z,2.92
2023-01-17T03:37:47.189Z,2.92
2023-01-17T03:38:47.212Z,2.90
2023-01-17T03:39:47.168Z,2.90
2023-01-17T03:40:47.166Z,2.89
2023-01-17T03:41:47.140Z,2.89
2023-01-17T03:42:47.173Z,2.87
2023-01-17T03:43:47.136Z,2.85
2023-01-17T03:44:47.138Z,2.82
2023-01-17T03:45:47.102Z,2.81
2023-01-17T03:46:47.104Z,2.79
2023-01-17T03:47:47.095Z,2.77
2023-01-17T03:48:47.114Z,2.72
2023-01-17T03:49:47.065Z,2.71
2023-01-17T03:50:47.084Z,2.66
2023-01-17T03:51:47.039Z,2.60
2023-01-17T03:52:47.061Z,2.57
2023-01-17T03:53:47.080Z,2.57
2023-01-17T03:54:47.024Z,2.57
2023-01-17T03:55:47.009Z,2.57
2023-01-17T03:56:47.014Z,2.54
2023-01-17T03:57:46.985Z,2.54
2023-01-17T03:58:46.999Z,2.53
2023-01-17T03:59:46.962Z,2.53
2023-01-17T04:00:47.036Z,2.54
2023-01-17T04:01:47.128Z,2.57
2023-01-17T04:02:47.020Z,2.57
2023-01-17T04:03:46.915Z,2.59
2023-01-17T04:04:46.930Z,2.57
2023-01-17T04:05:46.894Z,2.56
2023-01-17T04:06:46.903Z,2.54
2023-01-17T04:07:46.872Z,2.54
2023-01-17T04:08:46.889Z,2.56
2023-01-17T04:09:46.850Z,2.57
2023-01-17T04:10:46.870Z,2.56
2023-01-17T04:11:46.846Z,2.54
2023-01-17T04:12:46.835Z,2.54
2023-01-17T04:13:46.817Z,2.53
2023-01-17T04:14:46.828Z,2.54
2023-01-17T04:15:46.791Z,2.53
2023-01-17T04:16:46.877Z,2.53
2023-01-17T04:17:46.781Z,2.54
2023-01-17T04:18:46.776Z,2.53
2023-01-17T04:19:46.749Z,2.53
2023-01-17T04:20:46.769Z,2.49
2023-01-17T04:21:46.723Z,2.49
2023-01-17T04:22:46.756Z,2.49
2023-01-17T04:23:46.722Z,2.48
2023-01-17T04:24:46.697Z,2.48
2023-01-17T04:25:46.717Z,2.46
2023-01-17T04:26:46.682Z,2.45
2023-01-17T04:27:46.698Z,2.45
2023-01-17T04:28:46.661Z,2.43
2023-01-17T04:29:46.909Z,2.41
2023-01-17T04:30:46.689Z,2.41
2023-01-17T04:31:46.691Z,2.39
2023-01-17T04:32:46.623Z,2.38
2023-01-17T04:33:46.631Z,2.38
2023-01-17T04:34:46.592Z,2.34
2023-01-17T04:35:46.619Z,2.35
2023-01-17T04:36:46.565Z,2.36
2023-01-17T04:37:46.598Z,2.36
2023-01-17T04:38:46.547Z,2.36
2023-01-17T04:39:46.577Z,2.34
2023-01-17T04:40:46.525Z,2.34
2023-01-17T04:41:46.538Z,2.35
2023-01-17T04:42:46.538Z,2.34
2023-01-17T04:43:46.529Z,2.31
2023-01-17T04:44:46.497Z,2.31
2023-01-17T04:45:46.540Z,2.30
2023-01-17T04:46:46.464Z,2.30
2023-01-17T04:47:46.473Z,2.27
2023-01-17T04:48:46.447Z,2.27
2023-01-17T04:49:46.467Z,2.25
2023-01-17T04:50:46.419Z,2.25
2023-01-17T04:51:46.444Z,2.24
2023-01-17T04:52:46.426Z,2.24
2023-01-17T04:53:46.424Z,2.23
2023-01-17T04:54:46.380Z,2.21
2023-01-17T04:55:46.416Z,2.20
2023-01-17T04:56:46.372Z,2.18
2023-01-17T04:57:46.367Z,2.17
2023-01-17T04:58:46.340Z,2.14
2023-01-17T04:59:46.340Z,2.10
2023-01-17T05:00:46.368Z,2.09
2023-01-17T05:01:46.359Z,2.05
2023-01-17T05:02:46.312Z,2.03
2023-01-17T05:03:46.304Z,2.00
2023-01-17T05:04:46.278Z,2.00
2023-01-17T05:05:46.305Z,1.98
2023-01-17T05:06:46.282Z,1.93
2023-01-17T05:07:46.271Z,1.88
2023-01-17T05:08:46.230Z,1.88
2023-01-17T05:09:46.239Z,1.87
2023-01-17T05:10:46.244Z,1.86
2023-01-17T05:11:46.235Z,1.83
2023-01-17T05:12:47.724Z,1.83
2023-01-17T05:13:46.194Z,1.83
2023-01-17T05:14:46.183Z,1.80
2023-01-17T05:15:46.242Z,1.80
2023-01-17T05:16:46.160Z,1.77
2023-01-17T05:17:46.167Z,1.77
2023-01-17T05:18:46.130Z,1.72
2023-01-17T05:19:46.143Z,1.70
2023-01-17T05:20:46.127Z,1.66
2023-01-17T05:21:46.133Z,1.63
2023-01-17T05:22:46.085Z,1.62
2023-01-17T05:23:46.135Z,1.65
2023-01-17T05:24:46.067Z,1.66
2023-01-17T05:25:46.082Z,1.66
2023-01-17T05:26:46.058Z,1.68
2023-01-17T05:27:46.057Z,1.70
2023-01-17T05:28:46.025Z,1.73
2023-01-17T05:29:46.040Z,1.73
2023-01-17T05:30:46.031Z,1.77
2023-01-17T05:31:46.027Z,1.80
2023-01-17T05:32:45.988Z,1.84
2023-01-17T05:33:45.991Z,1.83
2023-01-17T05:34:45.970Z,1.86
2023-01-17T05:35:45.963Z,1.86
2023-01-17T05:36:45.943Z,1.87
2023-01-17T05:37:45.964Z,1.88
2023-01-17T05:38:45.927Z,1.91
2023-01-17T05:39:45.938Z,1.91
2023-01-17T05:40:45.904Z,1.93
2023-01-17T05:41:45.901Z,1.93
2023-01-17T05:42:45.872Z,1.91
2023-01-17T05:43:45.907Z,1.88
2023-01-17T05:44:45.853Z,1.81
2023-01-17T05:45:45.883Z,1.80
2023-01-17T05:46:45.830Z,1.72
2023-01-17T05:47:45.841Z,1.70
2023-01-17T05:48:45.821Z,1.68
2023-01-17T05:49:46.018Z,1.66
2023-01-17T05:50:45.789Z,1.65
2023-01-17T05:51:45.795Z,1.63
2023-01-17T05:52:45.765Z,1.63
2023-01-17T05:53:45.796Z,1.62
2023-01-17T05:54:45.757Z,1.60
2023-01-17T05:55:45.770Z,1.62
2023-01-17T05:56:45.738Z,1.60
2023-01-17T05:57:45.736Z,1.62
2023-01-17T05:58:45.726Z,1.59
2023-01-17T05:59:45.729Z,1.65
2023-01-17T06:00:45.682Z,1.66
2023-01-17T06:01:45.688Z,1.68
2023-01-17T06:02:45.782Z,1.70
2023-01-17T06:03:45.673Z,1.76
2023-01-17T06:04:45.690Z,1.77
2023-01-17T06:05:45.664Z,1.79
2023-01-17T06:06:45.620Z,1.77
2023-01-17T06:07:45.627Z,1.76
2023-01-17T06:08:45.602Z,1.73
2023-01-17T06:09:45.603Z,1.72
2023-01-17T06:10:45.599Z,1.69
2023-01-17T06:11:45.583Z,1.68
2023-01-17T06:12:45.557Z,1.66
2023-01-17T06:13:45.575Z,1.65
2023-01-17T06:14:45.548Z,1.63
2023-01-17T06:15:45.603Z,1.66
2023-01-17T06:16:45.530Z,1.66
2023-01-17T06:17:45.543Z,1.66
2023-01-17T06:18:45.502Z,1.63
2023-01-17T06:19:45.547Z,1.63
2023-01-17T06:20:45.488Z,1.59
2023-01-17T06:21:45.496Z,1.55
2023-01-17T06:22:45.454Z,1.54
2023-01-17T06:23:45.479Z,1.51
2023-01-17T06:24:45.435Z,1.48
2023-01-17T06:25:45.478Z,1.47
2023-01-17T06:26:45.434Z,1.47
2023-01-17T06:27:45.434Z,1.45
2023-01-17T06:28:45.393Z,1.42
2023-01-17T06:29:45.400Z,1.41
2023-01-17T06:30:45.385Z,1.41
2023-01-17T06:31:45.402Z,1.41
2023-01-17T06:32:45.359Z,1.40
2023-01-17T06:33:45.330Z,1.41
2023-01-17T06:34:45.338Z,1.41
2023-01-17T06:35:45.341Z,1.41
2023-01-17T06:36:45.284Z,1.41
2023-01-17T06:37:45.281Z,1.41
2023-01-17T06:38:45.292Z,1.40
2023-01-17T06:39:45.300Z,1.37
2023-01-17T06:40:45.291Z,1.37
2023-01-17T06:41:45.258Z,1.36
2023-01-17T06:42:45.212Z,1.37
2023-01-17T06:43:45.277Z,1.34
2023-01-17T06:44:45.199Z,1.34
2023-01-17T06:45:45.245Z,1.36
2023-01-17T06:46:45.318Z,1.37
2023-01-17T06:47:45.257Z,1.40
2023-01-17T06:48:45.148Z,1.41
2023-01-17T06:49:45.158Z,1.41
2023-01-17T06:50:45.128Z,1.42
2023-01-17T06:51:45.148Z,1.42
2023-01-17T06:52:45.112Z,1.44
2023-01-17T06:53:45.124Z,1.41
2023-01-17T06:54:45.076Z,1.44
2023-01-17T06:55:45.089Z,1.47
2023-01-17T06:56:45.073Z,1.47
2023-01-17T06:57:45.076Z,1.47
2023-01-17T06:58:45.047Z,1.48
2023-01-17T06:59:45.057Z,1.48
2023-01-17T07:00:45.037Z,1.47
2023-01-17T07:01:45.073Z,1.47
2023-01-17T07:02:45.010Z,1.47
2023-01-17T07:03:45.059Z,1.45
2023-01-17T07:04:44.977Z,1.44
2023-01-17T07:05:44.986Z,1.44
2023-01-17T07:06:44.964Z,1.42
2023-01-17T07:07:44.979Z,1.44
2023-01-17T07:08:44.958Z,1.44
2023-01-17T07:09:44.943Z,1.44
2023-01-17T07:10:44.925Z,1.45
2023-01-17T07:11:44.922Z,1.42
2023-01-17T07:12:44.893Z,1.40
2023-01-17T07:13:44.907Z,1.40
2023-01-17T07:14:44.907Z,1.36
2023-01-17T07:15:44.884Z,1.33
2023-01-17T07:16:44.945Z,1.32
2023-01-17T07:17:44.895Z,1.30
2023-01-17T07:18:44.845Z,1.29
2023-01-17T07:19:44.896Z,1.29
2023-01-17T07:20:44.826Z,1.29
2023-01-17T07:21:44.838Z,1.29
2023-01-17T07:22:44.800Z,1.30
2023-01-17T07:23:44.813Z,1.32
2023-01-17T07:24:44.796Z,1.30
2023-01-17T07:25:44.811Z,1.30
2023-01-17T07:26:44.779Z,1.27
2023-01-17T07:27:44.779Z,1.26
2023-01-17T07:28:44.754Z,1.26
2023-01-17T07:29:44.743Z,1.24
2023-01-17T07:30:44.730Z,1.23
2023-01-17T07:31:44.753Z,1.23
2023-01-17T07:32:44.700Z,1.23
2023-01-17T07:33:44.722Z,1.24
2023-01-17T07:34:44.682Z,1.23
2023-01-17T07:35:44.720Z,1.18
2023-01-17T07:36:44.656Z,1.18
2023-01-17T07:37:44.680Z,1.14
2023-01-17T07:38:44.685Z,1.11
2023-01-17T07:39:44.629Z,1.08
2023-01-17T07:40:44.624Z,1.05
2023-01-17T07:41:44.630Z,1.05
2023-01-17T07:42:44.600Z,1.05
2023-01-17T07:43:44.618Z,1.05
2023-01-17T07:44:44.596Z,1.08
2023-01-17T07:45:44.594Z,1.08
2023-01-17T07:46:44.606Z,1.08
2023-01-17T07:47:44.568Z,1.06
2023-01-17T07:48:44.546Z,1.08
2023-01-17T07:49:44.549Z,1.09
2023-01-17T07:50:44.518Z,1.11
2023-01-17T07:51:44.523Z,1.11
2023-01-17T07:52:44.534Z,1.15
2023-01-17T07:53:44.530Z,1.12
2023-01-17T07:54:44.484Z,1.14
2023-01-17T07:55:44.484Z,1.14
2023-01-17T07:56:44.463Z,1.15
2023-01-17T07:57:44.471Z,1.15
2023-01-17T07:58:44.454Z,1.22
2023-01-17T07:59:44.468Z,1.27
2023-01-17T08:00:44.431Z,1.32
2023-01-17T08:01:44.566Z,1.40
2023-01-17T08:02:44.407Z,1.41
2023-01-17T08:03:44.555Z,1.42
2023-01-17T08:04:44.381Z,1.41
2023-01-17T08:05:44.411Z,1.41
2023-01-17T08:06:44.370Z,1.41
2023-01-17T08:07:44.386Z,1.42
2023-01-17T08:08:44.352Z,1.42
2023-01-17T08:09:44.360Z,1.41
2023-01-17T08:10:44.322Z,1.41
2023-01-17T08:11:44.333Z,1.42
2023-01-17T08:12:44.352Z,1.42
2023-01-17T08:13:44.308Z,1.42
2023-01-17T08:14:44.314Z,1.48
2023-01-17T08:15:44.304Z,1.50
2023-01-17T08:16:44.332Z,1.52
2023-01-17T08:17:44.283Z,1.59
2023-01-17T08:18:44.240Z,1.65
2023-01-17T08:19:44.252Z,1.70
2023-01-17T08:20:44.242Z,1.77
2023-01-17T08:21:44.225Z,1.87
2023-01-17T08:22:44.207Z,1.99
2023-01-17T08:23:44.224Z,2.10
2023-01-17T08:24:44.187Z,2.24
2023-01-17T08:25:44.214Z,2.38
2023-01-17T08:26:44.164Z,2.46
2023-01-17T08:27:44.185Z,2.53
2023-01-17T08:28:44.162Z,2.57
2023-01-17T08:29:44.149Z,2.61
2023-01-17T08:30:44.119Z,2.66
2023-01-17T08:31:44.140Z,2.66
2023-01-17T08:32:44.102Z,2.66
2023-01-17T08:33:44.121Z,2.64
2023-01-17T08:34:44.102Z,2.64
2023-01-17T08:35:44.111Z,2.64
2023-01-17T08:36:44.068Z,2.66
2023-01-17T08:37:44.070Z,2.66
2023-01-17T08:38:44.043Z,2.66
2023-01-17T08:39:44.048Z,2.66
2023-01-17T08:40:44.423Z,2.71
2023-01-17T08:41:44.016Z,2.69
2023-01-17T08:42:44.024Z,2.69
2023-01-17T08:43:43.986Z,2.63
2023-01-17T08:44:44.007Z,2.64
2023-01-17T08:45:44.084Z,2.64
2023-01-17T08:46:43.989Z,2.63
2023-01-17T08:47:43.957Z,2.63
2023-01-17T08:48:43.956Z,2.61
2023-01-17T08:49:43.930Z,2.60
2023-01-17T08:50:43.942Z,2.60
2023-01-17T08:51:43.930Z,2.57
2023-01-17T08:52:43.926Z,2.53
2023-01-17T08:53:43.891Z,2.53
2023-01-17T08:54:43.896Z,2.53
2023-01-17T08:55:43.921Z,2.49
2023-01-17T08:56:43.899Z,2.46
2023-01-17T08:57:43.872Z,2.46
2023-01-17T08:58:43.876Z,2.45
2023-01-17T08:59:43.830Z,2.43
2023-01-17T09:00:43.912Z,2.41
2023-01-17T09:01:43.901Z,2.43
2023-01-17T09:02:43.820Z,2.41
2023-01-17T09:03:43.798Z,2.43
2023-01-17T09:04:43.793Z,2.43
2023-01-17T09:05:43.781Z,2.43
2023-01-17T09:06:43.775Z,2.45
2023-01-17T09:07:43.762Z,2.48
2023-01-17T09:08:46.333Z,2.52
2023-01-17T09:09:43.720Z,2.54
2023-01-17T09:10:43.757Z,2.57
2023-01-17T09:11:43.697Z,2.60
2023-01-17T09:12:43.725Z,2.64
2023-01-17T09:13:43.699Z,2.66
2023-01-17T09:14:43.697Z,2.71
2023-01-17T09:15:43.660Z,2.74
2023-01-17T09:16:43.750Z,2.77
2023-01-17T09:17:43.641Z,2.81
2023-01-17T09:18:43.650Z,2.84
2023-01-17T09:19:43.637Z,2.90
2023-01-17T09:20:43.621Z,2.90
2023-01-17T09:21:43.596Z,2.89
2023-01-17T09:22:45.656Z,2.89
2023-01-17T09:23:43.577Z,2.89
2023-01-17T09:24:43.595Z,2.90
2023-01-17T09:25:43.551Z,2.90
2023-01-17T09:26:43.559Z,2.93
2023-01-17T09:27:43.537Z,2.97
2023-01-17T09:28:43.549Z,3.10
2023-01-17T09:29:43.561Z,3.29
2023-01-17T09:30:43.552Z,3.43
2023-01-17T09:31:43.497Z,3.55
2023-01-17T09:32:43.490Z,3.61
2023-01-17T09:33:43.469Z,3.65
2023-01-17T09:34:43.488Z,3.65
2023-01-17T09:35:43.472Z,3.75
2023-01-17T09:36:43.471Z,3.87
2023-01-17T09:37:43.433Z,3.93
2023-01-17T09:38:43.433Z,4.04
2023-01-17T09:39:43.413Z,4.16
2023-01-17T09:40:43.435Z,4.37
2023-01-17T09:42:54.204Z,4.88
2023-01-17T09:43:55.201Z,5.10
2023-01-17T09:44:55.172Z,5.35
2023-01-17T09:45:55.245Z,5.60
2023-01-17T09:46:55.198Z,5.81
2023-01-17T09:47:55.187Z,5.97
2023-01-17T09:48:55.135Z,6.09
2023-01-17T09:49:55.218Z,6.12
2023-01-17T09:50:55.120Z,6.28
2023-01-17T09:51:55.128Z,6.40
2023-01-17T09:52:55.103Z,6.52
2023-01-17T09:53:55.115Z,6.56
2023-01-17T09:54:55.071Z,6.55
2023-01-17T09:55:55.094Z,6.30
2023-01-17T09:56:55.049Z,6.33
2023-01-17T09:57:55.070Z,6.36
2023-01-17T09:58:55.025Z,6.33
2023-01-17T10:00:02.959Z,6.01
2023-01-17T10:00:55.078Z,5.81
2023-01-17T10:01:55.191Z,5.60
2023-01-17T10:02:55.096Z,5.35
2023-01-17T10:03:55.113Z,5.15
2023-01-17T10:04:54.964Z,5.06
2023-01-17T10:05:54.969Z,4.92
2023-01-17T10:06:54.968Z,4.82
2023-01-17T10:07:53.942Z,4.70
2023-01-17T10:08:54.930Z,4.59
2023-01-17T10:09:54.953Z,4.50
2023-01-17T10:10:54.900Z,4.44
2023-01-17T10:11:54.920Z,4.40
2023-01-17T10:12:54.878Z,4.33
2023-01-17T10:13:54.898Z,4.23
2023-01-17T10:14:54.873Z,4.15
2023-01-17T10:15:54.877Z,4.08
2023-01-17T10:16:54.925Z,4.08
2023-01-17T10:17:54.875Z,4.08
2023-01-17T10:18:54.816Z,4.06
2023-01-17T10:19:54.834Z,4.04
2023-01-17T10:20:54.795Z,4.04
2023-01-17T10:21:54.847Z,4.05
2023-01-17T10:22:54.783Z,4.11
2023-01-17T10:23:54.793Z,4.18
2023-01-17T10:24:54.756Z,4.24
2023-01-17T10:25:54.758Z,4.27
2023-01-17T10:26:54.751Z,4.24
2023-01-17T10:27:54.774Z,4.23
2023-01-17T10:28:54.712Z,4.24
2023-01-17T10:29:54.725Z,4.24
2023-01-17T10:30:54.724Z,4.22
2023-01-17T10:31:54.700Z,4.15
2023-01-17T10:32:54.736Z,4.14
2023-01-17T10:33:54.688Z,4.06
2023-01-17T10:34:54.651Z,4.05
2023-01-17T10:35:54.694Z,4.00
2023-01-17T10:36:54.629Z,3.98
2023-01-17T10:37:54.650Z,4.00
2023-01-17T10:38:54.627Z,3.98
2023-01-17T10:39:54.622Z,3.93
2023-01-17T10:40:54.591Z,3.88
2023-01-17T10:41:54.589Z,3.83
2023-01-17T10:42:54.574Z,3.84
2023-01-17T10:43:54.663Z,3.80
2023-01-17T10:44:54.543Z,3.76
2023-01-17T10:45:54.666Z,3.73
2023-01-17T10:46:54.527Z,3.86
2023-01-17T10:47:54.539Z,4.05
2023-01-17T10:48:54.500Z,4.16
2023-01-17T10:49:54.583Z,4.27
2023-01-17T10:50:54.481Z,4.44
2023-01-17T10:51:54.500Z,4.59
2023-01-17T10:52:54.462Z,4.69
2023-01-17T10:53:54.459Z,4.60
2023-01-17T10:54:54.453Z,4.50
2023-01-17T10:55:54.459Z,4.47
2023-01-17T10:56:54.413Z,4.48
2023-01-17T10:57:54.442Z,4.62
2023-01-17T10:58:54.415Z,4.80
2023-01-17T10:59:54.413Z,5.02
2023-01-17T11:00:54.397Z,5.18
2023-01-17T11:01:54.411Z,5.31
2023-01-17T11:02:54.440Z,5.42
2023-01-17T11:03:54.357Z,5.56
2023-01-17T11:04:54.368Z,5.48
2023-01-17T11:05:54.356Z,5.31
2023-01-17T11:06:58.357Z,5.27
2023-01-17T11:07:54.322Z,5.21
2023-01-17T11:08:54.290Z,5.24
2023-01-17T11:09:54.321Z,5.21
2023-01-17T11:10:54.331Z,5.46
2023-01-17T11:11:54.284Z,5.63
2023-01-17T11:12:54.259Z,5.54
2023-01-17T11:13:54.265Z,5.40
2023-01-17T11:14:54.236Z,5.22
2023-01-17T11:15:54.299Z,5.07
2023-01-17T11:16:54.216Z,4.88
2023-01-17T11:17:54.250Z,4.77
2023-01-17T11:18:54.186Z,4.65
2023-01-17T11:19:54.189Z,4.59
2023-01-17T11:20:54.180Z,4.50
2023-01-17T11:21:54.185Z,4.47
2023-01-17T11:22:54.158Z,4.52
2023-01-17T11:23:54.161Z,4.54
2023-01-17T11:24:54.127Z,4.45
2023-01-17T11:25:54.145Z,4.40
2023-01-17T11:26:54.103Z,4.33
2023-01-17T11:27:54.108Z,4.26
2023-01-17T11:28:54.093Z,4.24
2023-01-17T11:29:54.110Z,4.20
2023-01-17T11:30:54.120Z,4.20
2023-01-17T11:31:54.079Z,4.14
2023-01-17T11:32:54.039Z,4.11
2023-01-17T11:33:54.080Z,4.08
2023-01-17T11:34:54.022Z,4.06
2023-01-17T11:35:54.047Z,4.02
2023-01-17T11:36:53.998Z,3.96
2023-01-17T11:37:54.021Z,3.91
2023-01-17T11:38:53.976Z,3.88
2023-01-17T11:39:54.023Z,3.86
2023-01-17T11:40:53.972Z,3.86
2023-01-17T11:41:53.992Z,3.80
2023-01-17T11:42:53.939Z,3.79
2023-01-17T11:43:53.941Z,3.78
2023-01-17T11:44:53.925Z,3.76
2023-01-17T11:45:53.940Z,3.83
2023-01-17T11:46:53.909Z,4.09
2023-01-17T11:47:53.908Z,4.40
2023-01-17T11:48:56.058Z,4.50
2023-01-17T11:49:53.893Z,4.54
2023-01-17T11:50:53.850Z,4.45
2023-01-17T11:51:53.885Z,4.36
2023-01-17T11:52:53.883Z,4.29
2023-01-17T11:53:53.850Z,4.24
2023-01-17T11:54:53.845Z,4.16
2023-01-17T11:55:53.828Z,4.12
2023-01-17T11:56:53.792Z,4.11
2023-01-17T11:57:55.812Z,4.20
2023-01-17T11:58:53.773Z,4.50
2023-01-17T11:59:53.907Z,5.03
2023-01-17T12:00:53.762Z,5.65
2023-01-17T12:01:53.758Z,6.30
2023-01-17T12:02:53.720Z,6.92
2023-01-17T12:03:53.790Z,7.43
2023-01-17T12:04:53.728Z,7.87
2023-01-17T12:05:53.823Z,8.28
2023-01-17T12:06:58.114Z,8.62
2023-01-17T12:07:53.683Z,8.86
2023-01-17T12:08:53.662Z,8.89
2023-01-17T12:09:53.678Z,8.98
2023-01-17T12:10:53.653Z,9.26
2023-01-17T12:11:53.671Z,9.39
2023-01-17T12:12:53.628Z,9.50
2023-01-17T12:13:53.647Z,9.65
2023-01-17T12:14:53.598Z,10.09
2023-01-17T12:15:53.666Z,10.52
2023-01-17T12:16:53.580Z,10.70
2023-01-17T12:17:53.601Z,10.84
2023-01-17T12:18:53.554Z,10.76
2023-01-17T12:19:53.578Z,10.89
2023-01-17T12:20:53.530Z,11.00
2023-01-17T12:21:53.546Z,11.02
2023-01-17T12:22:53.511Z,11.10
2023-01-17T12:23:53.528Z,11.32
2023-01-17T12:24:53.494Z,11.62
2023-01-17T12:25:53.518Z,11.64
2023-01-17T12:26:53.469Z,11.70
2023-01-17T12:27:53.474Z,11.76
2023-01-17T12:28:53.460Z,12.10
2023-01-17T12:29:53.485Z,12.41
2023-01-17T12:30:53.512Z,12.77
2023-01-17T12:31:53.470Z,12.71
2023-01-17T12:32:53.419Z,12.52
2023-01-17T12:33:53.426Z,12.35
2023-01-17T12:34:53.386Z,12.38
2023-01-17T12:35:53.418Z,12.67
2023-01-17T12:36:53.383Z,12.85
2023-01-17T12:38:04.491Z,12.68
2023-01-17T12:38:53.352Z,12.54
2023-01-17T12:39:53.348Z,12.14
2023-01-17T12:40:53.331Z,11.98
2023-01-17T12:41:53.330Z,12.07
2023-01-17T12:42:53.312Z,12.14
2023-01-17T12:43:53.301Z,12.23
2023-01-17T12:44:53.277Z,12.34
2023-01-17T12:45:53.286Z,12.31
2023-01-17T12:46:53.272Z,12.34
2023-01-17T12:47:53.269Z,12.24
2023-01-17T12:48:53.235Z,12.39
2023-01-17T12:49:53.253Z,12.38
2023-01-17T12:50:53.232Z,12.46
2023-01-17T12:51:53.216Z,12.56
2023-01-17T12:52:53.193Z,12.71
2023-01-17T12:53:53.209Z,12.90
2023-01-17T12:54:53.169Z,12.92
2023-01-17T12:55:53.182Z,13.07
2023-01-17T12:56:53.176Z,13.11
2023-01-17T12:57:53.173Z,13.04
2023-01-17T12:58:53.127Z,12.89
2023-01-17T12:59:53.136Z,12.87
2023-01-17T13:00:53.190Z,12.70
2023-01-17T13:01:53.287Z,12.56
2023-01-17T13:02:53.106Z,12.52
2023-01-17T13:03:53.104Z,12.70
2023-01-17T13:04:58.797Z,12.93
2023-01-17T13:05:53.089Z,13.17
2023-01-17T13:06:53.088Z,13.38
2023-01-17T13:07:53.041Z,13.63
2023-01-17T13:08:53.045Z,13.62
2023-01-17T13:09:53.009Z,13.59
2023-01-17T13:10:53.033Z,13.59
2023-01-17T13:11:52.996Z,13.59
2023-01-17T13:12:53.012Z,13.60
2023-01-17T13:13:52.983Z,13.82
2023-01-17T13:14:52.991Z,13.88
2023-01-17T13:15:52.969Z,13.97
2023-01-17T13:16:52.963Z,13.96
2023-01-17T13:17:52.932Z,13.87